Time;durP1;ratioP1;P1;durP2;ratioP2;P2;SDS_P1;SDS_P2;PMS_P1;PMS_P2;Temp;Humidity;BMP_temperature;BMP_pressure;BME280_temperature;BME280_humidity;BME280_pressure;Samples;Min_cycle;Max_cycle;Signal;HPM_P1;HPM_P2
2022/08/19 00:01:30;;;;;;;10.85;5.12;;;;;;;21.47;74.31;99395.80;1611329;88;21082;-81
2022/08/19 00:03:58;;;;;;;11.18;5.70;;;;;;;21.43;74.54;99392.92;1608488;89;21145;-75
2022/08/19 00:06:26;;;;;;;14.75;5.67;;;;;;;21.39;74.66;99397.42;1598138;89;21017;-79
2022/08/19 00:08:53;;;;;;;18.50;6.08;;;;;;;21.38;74.77;99392.30;1624312;88;21462;-76
2022/08/19 00:11:20;;;;;;;13.08;5.85;;;;;;;21.39;74.83;99397.42;1624426;88;21053;-77
2022/08/19 00:13:48;;;;;;;15.28;6.00;;;;;;;21.38;74.87;99398.58;1624356;88;21129;-77
2022/08/19 00:16:20;;;;;;;14.70;6.87;;;;;;;21.32;75.07;99405.35;1604228;88;21119;-77
2022/08/19 00:18:48;;;;;;;11.90;6.87;;;;;;;21.28;75.28;99403.84;1586924;89;21597;-80
2022/08/19 00:21:14;;;;;;;14.85;5.67;;;;;;;21.23;75.40;99410.05;1657283;86;21036;-82
2022/08/19 00:23:42;;;;;;;12.05;5.58;;;;;;;21.17;75.74;99408.62;1657439;85;21018;-85
2022/08/19 00:26:10;;;;;;;12.20;6.42;;;;;;;21.12;76.02;99411.50;1653092;86;21578;-77
2022/08/19 00:28:37;;;;;;;9.40;6.15;;;;;;;21.11;76.18;99403.05;1653373;86;21042;-77
2022/08/19 00:31:04;;;;;;;9.40;7.30;;;;;;;21.04;76.69;99404.94;1674706;85;20978;-77
2022/08/19 00:33:34;;;;;;;7.90;6.03;;;;;;;21.00;76.76;99401.25;1663170;85;21088;-76
2022/08/19 00:36:04;;;;;;;11.45;6.85;;;;;;;20.97;77.04;99394.23;1686656;85;20994;-76
2022/08/19 00:38:31;;;;;;;7.33;6.60;;;;;;;20.94;77.21;99403.10;1666064;85;21085;-77
2022/08/19 00:40:58;;;;;;;10.68;6.35;;;;;;;20.89;77.30;99401.34;1685101;85;21132;-77
2022/08/19 00:43:26;;;;;;;12.25;6.15;;;;;;;20.86;77.66;99393.80;1686689;85;21065;-78
2022/08/19 00:45:53;;;;;;;12.63;7.45;;;;;;;20.82;78.10;99392.82;1656179;85;21649;-77
2022/08/19 00:48:21;;;;;;;6.62;5.80;;;;;;;20.72;78.40;99391.82;1653283;86;21586;-77
2022/08/19 00:50:48;;;;;;;7.78;5.83;;;;;;;20.70;78.55;99400.33;1655084;86;21102;-78
2022/08/19 00:53:18;;;;;;;11.88;7.30;;;;;;;20.69;78.82;99397.36;1653452;86;21846;-77
2022/08/19 00:55:48;;;;;;;9.98;6.87;;;;;;;20.67;78.77;99401.55;1657217;85;21141;-78
2022/08/19 00:58:19;;;;;;;9.05;6.05;;;;;;;20.66;78.86;99402.67;1658412;86;21564;-77
2022/08/19 01:00:46;;;;;;;17.23;7.17;;;;;;;20.65;78.92;99400.50;1658635;86;21062;-79
2022/08/19 01:03:17;;;;;;;12.23;6.70;;;;;;;20.62;79.09;99411.28;1657185;86;21726;-79
2022/08/19 01:05:44;;;;;;;12.73;6.87;;;;;;;20.57;79.31;99411.45;1653318;86;21265;-75
2022/08/19 01:08:12;;;;;;;12.88;6.37;;;;;;;20.58;79.34;99413.84;1649692;86;21015;-76
2022/08/19 01:10:50;;;;;;;11.53;7.03;;;;;;;20.58;79.47;99412.47;1623163;85;21078;-79
2022/08/19 01:13:19;;;;;;;10.95;6.35;;;;;;;20.55;79.48;99412.31;1650479;86;21693;-78
2022/08/19 01:15:57;;;;;;;6.67;5.95;;;;;;;20.51;79.72;99405.89;1624874;86;21095;-76
2022/08/19 01:18:23;;;;;;;6.60;6.00;;;;;;;20.48;79.77;99415.52;1651309;86;21099;-76
2022/08/19 01:20:53;;;;;;;12.50;6.85;;;;;;;20.43;80.32;99419.81;1651353;86;20995;-77
2022/08/19 01:23:19;;;;;;;11.53;7.10;;;;;;;20.35;80.52;99417.30;1651099;86;20955;-75
2022/08/19 01:25:54;;;;;;;9.98;7.00;;;;;;;20.29;80.86;99417.17;1672710;85;21157;-79
2022/08/19 01:28:25;;;;;;;10.75;8.08;;;;;;;20.25;81.15;99416.77;1665976;85;21126;-77
2022/08/19 01:30:53;;;;;;;15.30;6.87;;;;;;;20.18;81.45;99414.53;1649659;87;21884;-78
2022/08/19 01:33:20;;;;;;;17.50;7.53;;;;;;;20.16;81.59;99412.67;1649993;86;20991;-79
2022/08/19 01:35:51;;;;;;;16.40;6.30;;;;;;;20.11;81.96;99407.36;1651345;86;21574;-74
2022/08/19 01:38:26;;;;;;;11.20;7.10;;;;;;;20.06;82.47;99409.44;1652085;86;21062;-74
2022/08/19 01:40:53;;;;;;;10.32;6.50;;;;;;;20.00;82.75;99410.15;1652317;85;21067;-75
2022/08/19 01:43:20;;;;;;;12.68;7.22;;;;;;;19.94;83.08;99401.33;1651129;86;21806;-78
2022/08/19 01:45:47;;;;;;;11.53;7.33;;;;;;;19.94;83.08;99401.33;1649667;87;21045;-76
2022/08/19 01:48:13;;;;;;;12.75;8.98;;;;;;;19.92;83.49;99396.74;1648187;87;21097;-77
2022/08/19 01:50:41;;;;;;;24.95;11.90;;;;;;;19.89;83.80;99392.48;1645589;87;21090;-74
2022/08/19 01:53:10;;;;;;;19.80;13.15;;;;;;;19.86;83.92;99396.64;1650139;86;21074;-76
2022/08/19 01:55:40;;;;;;;16.97;11.85;;;;;;;19.85;83.90;99392.89;1650704;85;21156;-79
2022/08/19 01:58:07;;;;;;;21.15;12.13;;;;;;;19.85;83.96;99396.98;1645563;87;21010;-86
2022/08/19 02:00:34;;;;;;;15.98;10.32;;;;;;;19.83;83.91;99394.56;1646004;87;20966;-86
2022/08/19 02:03:01;;;;;;;15.43;9.80;;;;;;;19.77;84.39;99393.65;1647063;87;21241;-87
2022/08/19 02:05:29;;;;;;;15.20;10.05;;;;;;;19.76;84.29;99396.94;1651587;86;21030;-77
2022/08/19 02:07:58;;;;;;;10.38;7.78;;;;;;;19.75;84.22;99395.91;1656438;86;21096;-84
2022/08/19 02:10:26;;;;;;;20.40;6.78;;;;;;;19.77;84.23;99395.82;1593584;88;21577;-83
2022/08/19 02:12:53;;;;;;;8.95;7.62;;;;;;;19.76;84.30;99394.20;1595281;89;21058;-85
2022/08/19 02:15:19;;;;;;;12.28;7.30;;;;;;;19.73;84.31;99387.22;1611007;88;21060;-86
2022/08/19 02:17:47;;;;;;;16.85;7.50;;;;;;;19.68;84.52;99395.00;1617955;88;21004;-91
2022/08/19 02:20:14;;;;;;;10.68;6.80;;;;;;;19.69;84.10;99396.61;1657674;86;21124;-86
2022/08/19 02:22:43;;;;;;;9.20;6.12;;;;;;;19.69;84.10;99396.61;1657270;86;21304;-85
2022/08/19 02:25:15;;;;;;;14.47;7.25;;;;;;;19.70;84.25;99391.41;1668354;85;21061;-86
2022/08/19 02:27:43;;;;;;;9.93;7.58;;;;;;;19.70;84.18;99385.14;1687323;85;21021;-86
2022/08/19 02:30:15;;;;;;;13.75;7.00;;;;;;;19.71;83.95;99383.44;1687421;85;21050;-87
2022/08/19 02:32:42;;;;;;;16.77;6.78;;;;;;;19.66;84.08;99384.98;1687151;85;21250;-86
2022/08/19 02:35:12;;;;;;;9.10;6.15;;;;;;;19.62;84.08;99383.17;1687059;85;21030;-84
2022/08/19 02:40:25;;;;;;;7.12;5.67;;;;;;;19.52;84.40;99389.17;1657112;85;21045;-86
2022/08/19 02:42:52;;;;;;;8.18;7.17;;;;;;;19.51;84.59;99399.05;1677405;85;21011;-87
2022/08/19 02:45:19;;;;;;;12.82;6.37;;;;;;;19.48;84.72;99390.11;1657454;86;21631;-86
2022/08/19 02:47:47;;;;;;;8.53;6.95;;;;;;;19.49;84.65;99384.91;1577742;88;21064;-86
2022/08/19 02:50:14;;;;;;;8.05;7.25;;;;;;;19.49;84.62;99393.09;1651823;86;21540;-86
2022/08/19 02:52:40;;;;;;;14.30;6.78;;;;;;;19.45;84.61;99399.75;1653335;85;21065;-87
2022/08/19 02:55:08;;;;;;;18.45;14.68;;;;;;;19.45;84.63;99395.66;1659158;85;20979;-82
2022/08/19 02:57:35;;;;;;;14.80;8.70;;;;;;;19.44;84.72;99397.33;1658358;86;21290;-80
2022/08/19 03:00:06;;;;;;;9.53;6.53;;;;;;;19.44;84.59;99402.22;1657444;85;20967;-85
2022/08/19 03:02:35;;;;;;;13.03;7.28;;;;;;;19.44;84.59;99405.50;1629983;86;21543;-85
2022/08/19 03:05:03;;;;;;;8.05;6.83;;;;;;;19.41;84.67;99399.30;1636370;86;21039;-81
2022/08/19 03:07:30;;;;;;;9.85;6.83;;;;;;;19.34;85.12;99398.94;1649040;86;20971;-86
2022/08/19 03:09:57;;;;;;;11.43;6.70;;;;;;;19.28;85.25;99398.27;1657658;85;21641;-87
2022/08/19 03:12:23;;;;;;;10.38;6.80;;;;;;;19.26;85.36;99396.98;1656390;85;21105;-84
2022/08/19 03:14:51;;;;;;;13.68;5.42;;;;;;;19.25;85.43;99402.99;1644899;87;20916;-88
2022/08/19 03:17:19;;;;;;;14.63;6.83;;;;;;;19.26;85.55;99401.88;1652034;85;21085;-86
2022/08/19 03:19:46;;;;;;;9.45;6.28;;;;;;;19.27;85.46;99409.50;1651431;86;21109;-87
2022/08/19 03:22:13;;;;;;;20.20;6.87;;;;;;;19.27;85.44;99406.78;1670726;85;21219;-85
2022/08/19 03:24:40;;;;;;;8.78;6.20;;;;;;;19.28;85.30;99401.58;1670231;85;21549;-86
2022/08/19 03:27:07;;;;;;;12.30;6.22;;;;;;;19.30;85.19;99405.58;1646499;86;21054;-87
2022/08/19 03:29:36;;;;;;;13.53;10.68;;;;;;;19.28;85.31;99408.39;1646452;87;21040;-85
2022/08/19 03:32:04;;;;;;;10.70;7.25;;;;;;;19.26;85.40;99410.62;1599757;87;21105;-85
2022/08/19 03:34:32;;;;;;;7.00;6.25;;;;;;;19.27;85.27;99412.23;1659267;85;21081;-86
2022/08/19 03:37:08;;;;;;;9.78;6.62;;;;;;;19.21;85.56;99409.39;1646908;86;21027;-87
2022/08/19 03:39:37;;;;;;;11.70;6.97;;;;;;;19.21;85.62;99418.38;1650496;86;20924;-85
2022/08/19 03:42:05;;;;;;;11.20;6.62;;;;;;;19.23;85.35;99432.52;1650159;87;21157;-85
2022/08/19 03:44:32;;;;;;;7.35;6.40;;;;;;;19.23;85.37;99426.25;1624758;86;21065;-86
2022/08/19 03:46:59;;;;;;;10.65;7.03;;;;;;;19.27;85.29;99433.49;1651540;86;21049;-86
2022/08/19 03:49:29;;;;;;;10.68;6.80;;;;;;;19.29;85.06;99426.34;1640441;86;20959;-85
2022/08/19 03:51:57;;;;;;;10.00;7.08;;;;;;;19.33;84.90;99432.80;1651574;86;20955;-86
2022/08/19 03:54:24;;;;;;;16.07;5.90;;;;;;;19.38;84.66;99434.00;1650154;86;21080;-85
2022/08/19 03:56:53;;;;;;;12.35;7.45;;;;;;;19.42;84.29;99433.64;1623785;86;21030;-86
2022/08/19 03:59:27;;;;;;;7.95;5.55;;;;;;;19.45;84.13;99433.03;1650487;87;21206;-85
2022/08/19 04:01:56;;;;;;;17.05;5.97;;;;;;;19.47;83.89;99443.86;1649286;87;21034;-83
2022/08/19 04:04:23;;;;;;;12.82;5.92;;;;;;;19.46;83.77;99435.46;1651225;85;21007;-85
2022/08/19 04:06:50;;;;;;;7.42;6.70;;;;;;;19.48;83.71;99450.13;1618213;88;21117;-84
2022/08/19 04:09:18;;;;;;;9.53;6.17;;;;;;;19.50;83.49;99462.34;1589465;90;21055;-87
2022/08/19 04:11:48;;;;;;;8.60;6.53;;;;;;;19.50;83.57;99460.98;1589210;89;21187;-88
2022/08/19 04:14:20;;;;;;;10.90;6.22;;;;;;;19.43;83.57;99464.67;1576648;89;21525;-84
2022/08/19 04:16:47;;;;;;;10.78;7.12;;;;;;;19.40;83.70;99468.05;1581037;90;21071;-88
2022/08/19 04:19:16;;;;;;;21.70;12.85;;;;;;;19.43;83.71;99469.33;1555588;90;21038;-88
2022/08/19 04:21:45;;;;;;;8.13;5.65;;;;;;;19.50;83.50;99473.81;1565174;91;21391;-87
2022/08/19 04:24:12;;;;;;;8.83;6.17;;;;;;;19.55;83.27;99474.48;1590740;90;21187;-88
2022/08/19 04:26:42;;;;;;;18.50;6.55;;;;;;;19.59;82.80;99466.47;1602948;89;21019;-88
2022/08/19 04:29:13;;;;;;;16.87;7.60;;;;;;;19.64;82.70;99467.70;1580394;90;21079;-85
2022/08/19 04:31:40;;;;;;;7.10;5.47;;;;;;;19.69;82.53;99465.39;1551416;91;21094;-85
2022/08/19 04:34:10;;;;;;;16.97;7.22;;;;;;;19.74;82.15;99471.52;1575724;90;21524;-80
2022/08/19 04:36:39;;;;;;;8.80;5.83;;;;;;;19.73;81.94;99473.99;1538583;91;21260;-83
2022/08/19 04:39:11;;;;;;;13.75;5.78;;;;;;;19.77;81.86;99478.25;1588510;89;21121;-85
2022/08/19 04:44:23;;;;;;;12.47;6.50;;;;;;;19.85;81.50;99471.48;1586008;90;21112;-84
2022/08/19 04:46:52;;;;;;;11.97;5.95;;;;;;;19.85;81.17;99467.39;1560464;89;21174;-86
2022/08/19 04:49:21;;;;;;;21.12;9.08;;;;;;;19.89;81.01;99474.38;1586923;89;21161;-85
2022/08/19 04:51:49;;;;;;;15.83;6.60;;;;;;;19.86;81.18;99466.24;1601775;89;21118;-88
2022/08/19 04:54:17;;;;;;;11.33;5.30;;;;;;;19.87;81.15;99461.03;1549293;91;21038;-86
2022/08/19 04:56:43;;;;;;;11.83;5.83;;;;;;;19.89;81.11;99458.80;1576469;91;21635;-82
2022/08/19 04:59:10;;;;;;;11.60;7.55;;;;;;;19.87;81.06;99459.67;1550965;91;21090;-85
2022/08/19 05:01:37;;;;;;;18.07;11.22;;;;;;;19.89;80.92;99465.63;1582059;89;21159;-87
2022/08/19 05:04:05;;;;;;;14.70;8.50;;;;;;;19.93;81.01;99467.97;1600749;89;20935;-78
2022/08/19 05:06:33;;;;;;;14.23;6.05;;;;;;;19.97;80.85;99468.94;1582298;89;21177;-85
2022/08/19 05:09:04;;;;;;;7.25;6.20;;;;;;;20.01;80.69;99474.00;1609852;89;21010;-87
2022/08/19 05:11:37;;;;;;;13.70;6.72;;;;;;;20.04;80.68;99471.22;1610783;89;21575;-87
2022/08/19 05:14:07;;;;;;;7.75;5.95;;;;;;;20.08;80.45;99475.47;1592716;89;20982;-89
2022/08/19 05:16:33;;;;;;;10.88;7.33;;;;;;;20.09;80.18;99481.18;1611088;88;20961;-83
2022/08/19 05:24:35;;;;;;;9.20;6.30;;;;;;;20.08;80.45;99475.47;1610899;88;20931;-84
2022/08/19 05:27:05;;;;;;;12.65;5.87;;;;;;;20.10;80.62;99485.49;1601508;89;21238;-83
2022/08/19 05:29:35;;;;;;;15.35;6.22;;;;;;;20.16;80.78;99480.95;1575923;90;21007;-83
2022/08/19 05:32:05;;;;;;;9.13;6.40;;;;;;;20.21;80.32;99479.43;1594837;88;21051;-83
2022/08/19 05:34:32;;;;;;;12.05;5.87;;;;;;;20.27;80.17;99483.63;1590818;88;20945;-83
2022/08/19 05:36:59;;;;;;;15.38;6.12;;;;;;;20.31;80.07;99487.36;1583738;90;21107;-83
2022/08/19 05:39:29;;;;;;;6.53;5.53;;;;;;;20.33;79.87;99489.78;1610497;89;21628;-84
2022/08/19 05:42:06;;;;;;;12.23;6.35;;;;;;;20.37;79.99;99501.11;1610433;89;21009;-84
2022/08/19 05:44:37;;;;;;;9.30;5.97;;;;;;;20.38;79.91;99499.97;1578124;90;21669;-83
2022/08/19 05:47:06;;;;;;;12.23;5.72;;;;;;;20.42;79.57;99506.98;1577641;89;21063;-80
2022/08/19 05:49:33;;;;;;;11.97;6.00;;;;;;;20.43;79.40;99498.45;1610574;89;21596;-81
2022/08/19 05:52:05;;;;;;;17.25;6.15;;;;;;;20.45;79.42;99496.22;1575409;90;21327;-82
2022/08/19 05:54:32;;;;;;;10.48;6.50;;;;;;;20.48;79.27;99504.91;1610302;89;21022;-86
2022/08/19 05:57:00;;;;;;;11.83;6.10;;;;;;;20.50;79.44;99497.98;1594347;90;21003;-85
2022/08/19 05:59:29;;;;;;;11.43;6.97;;;;;;;20.53;79.59;99504.16;1594812;89;21600;-83
2022/08/19 06:01:56;;;;;;;13.62;5.42;;;;;;;20.56;79.58;99500.81;1606336;89;21126;-81
2022/08/19 06:04:24;;;;;;;11.22;6.75;;;;;;;20.60;79.35;99499.60;1594712;87;21153;-82
2022/08/19 06:06:53;;;;;;;12.40;6.47;;;;;;;20.63;79.46;99497.02;1612898;88;21042;-84
2022/08/19 06:09:21;;;;;;;14.05;6.75;;;;;;;20.66;79.37;99504.59;1635292;87;20988;-83
2022/08/19 06:12:07;;;;;;;12.82;7.10;;;;;;;20.69;79.23;99502.58;1628733;87;21081;-84
2022/08/19 06:14:35;;;;;;;11.63;6.22;;;;;;;20.70;79.04;99508.30;1613454;88;21093;-84
2022/08/19 06:17:02;;;;;;;16.62;6.70;;;;;;;20.73;79.21;99515.03;1617979;88;21215;-84
2022/08/19 06:19:29;;;;;;;13.58;6.85;;;;;;;20.77;79.25;99518.73;1612168;88;21580;-86
2022/08/19 06:21:58;;;;;;;11.08;6.35;;;;;;;20.82;79.31;99523.48;1576420;87;21075;-85
2022/08/19 06:24:25;;;;;;;13.68;6.53;;;;;;;20.93;79.23;99527.27;1614909;87;22369;-87
2022/08/19 06:26:55;;;;;;;13.58;6.20;;;;;;;21.01;78.81;99531.35;1658816;86;21027;-86
2022/08/19 06:29:26;;;;;;;14.95;7.12;;;;;;;21.06;78.29;99518.88;1658402;86;22211;-84
2022/08/19 06:31:55;;;;;;;11.12;5.33;;;;;;;21.10;78.02;99510.86;1673026;85;21021;-83
2022/08/19 06:34:24;;;;;;;8.08;5.58;;;;;;;21.14;78.22;99505.01;1650000;86;21070;-84
2022/08/19 06:36:53;;;;;;;11.83;7.45;;;;;;;21.24;78.02;99513.69;1652584;86;21077;-83
2022/08/19 06:39:25;;;;;;;14.87;6.40;;;;;;;21.31;77.79;99512.61;1653396;86;21033;-82
2022/08/19 06:41:56;;;;;;;9.53;6.27;;;;;;;21.36;77.37;99510.83;1653846;86;22297;-83
2022/08/19 06:44:25;;;;;;;14.83;6.25;;;;;;;21.38;77.28;99523.63;1653179;86;21062;-83
2022/08/19 06:46:55;;;;;;;14.70;6.85;;;;;;;21.42;77.14;99511.71;1678215;85;21025;-83
2022/08/19 06:49:23;;;;;;;10.00;5.80;;;;;;;21.48;77.05;99508.23;1676293;85;21049;-84
2022/08/19 06:51:50;;;;;;;12.28;7.17;;;;;;;21.49;76.72;99499.68;1581365;89;21106;-84
2022/08/19 06:54:17;;;;;;;10.58;6.50;;;;;;;21.56;76.82;99500.00;1623379;88;21456;-84
2022/08/19 06:56:45;;;;;;;5.92;5.35;;;;;;;21.61;76.56;99494.34;1624332;88;21014;-84
2022/08/19 06:59:16;;;;;;;9.15;5.85;;;;;;;21.69;76.38;99500.34;1624375;88;21014;-83
2022/08/19 07:01:46;;;;;;;17.95;6.75;;;;;;;21.78;76.18;99504.97;1615340;88;21075;-87
2022/08/19 07:04:15;;;;;;;8.88;6.67;;;;;;;21.80;75.78;99504.09;1601150;89;21559;-86
2022/08/19 07:06:43;;;;;;;15.72;6.33;;;;;;;21.82;75.56;99507.31;1607805;89;21216;-82
2022/08/19 07:09:12;;;;;;;9.03;5.30;;;;;;;21.86;75.52;99509.62;1581420;89;21609;-84
2022/08/19 07:11:50;;;;;;;18.82;8.00;;;;;;;21.93;75.56;99514.85;1601997;88;21063;-84
2022/08/19 07:14:21;;;;;;;9.03;6.20;;;;;;;22.00;75.11;99517.89;1582060;89;21641;-84
2022/08/19 07:16:49;;;;;;;8.98;5.75;;;;;;;22.04;74.90;99509.81;1585728;87;21012;-85
2022/08/19 07:19:18;;;;;;;9.58;5.65;;;;;;;21.98;74.83;99519.34;1604050;87;21126;-86
2022/08/19 07:21:48;;;;;;;14.07;6.50;;;;;;;21.96;74.90;99519.69;1606726;88;21071;-82
2022/08/19 07:24:15;;;;;;;12.82;6.97;;;;;;;21.98;74.87;99519.34;1606288;89;21109;-81
2022/08/19 07:26:43;;;;;;;15.20;6.03;;;;;;;21.98;75.05;99516.03;1592322;89;21542;-82
2022/08/19 07:29:10;;;;;;;14.47;5.55;;;;;;;22.05;75.21;99517.71;1596441;89;21151;-79
2022/08/19 07:31:37;;;;;;;13.62;7.22;;;;;;;22.09;74.49;99517.28;1607256;89;21091;-81
2022/08/19 07:34:07;;;;;;;11.88;6.25;;;;;;;22.13;74.47;99521.53;1581881;89;21660;-83
2022/08/19 07:36:36;;;;;;;8.28;6.80;;;;;;;22.18;73.91;99518.60;1605845;87;21040;-80
2022/08/19 07:39:08;;;;;;;9.80;6.33;;;;;;;22.24;73.86;99511.80;1581468;89;21171;-81
2022/08/19 07:41:36;;;;;;;20.10;6.12;;;;;;;22.31;73.84;99523.03;1582817;89;21140;-83
2022/08/19 07:44:05;;;;;;;15.00;8.60;;;;;;;22.36;73.62;99526.95;1600745;89;22396;-87
2022/08/19 07:46:33;;;;;;;8.28;6.25;;;;;;;22.39;73.68;99516.72;1580613;89;21045;-88
2022/08/19 07:49:02;;;;;;;8.68;5.37;;;;;;;22.49;73.76;99514.93;1591432;87;20968;-87
2022/08/19 07:51:29;;;;;;;16.37;5.45;;;;;;;22.56;72.71;99513.04;1602803;87;21099;-87
2022/08/19 07:53:55;;;;;;;8.90;5.62;;;;;;;22.59;72.51;99509.05;1650845;86;21605;-86
2022/08/19 07:56:22;;;;;;;15.23;6.22;;;;;;;22.66;72.75;99501.67;1657124;85;21089;-87
2022/08/19 07:58:50;;;;;;;13.53;6.75;;;;;;;22.74;72.14;99513.73;1609167;87;21024;-83
2022/08/19 08:01:22;;;;;;;13.95;5.55;;;;;;;22.78;71.51;99509.21;1649496;85;21584;-85
2022/08/19 08:09:26;;;;;;;8.70;5.55;;;;;;;22.90;70.94;99528.45;1572349;90;21263;-85
2022/08/19 08:12:00;;;;;;;12.20;5.58;;;;;;;22.96;70.85;99527.13;1568726;90;21072;-82
2022/08/19 08:14:38;;;;;;;10.53;6.90;;;;;;;23.01;71.01;99534.59;1584835;90;21618;-88
2022/08/19 08:17:06;;;;;;;13.15;6.47;;;;;;;23.04;71.26;99529.78;1571416;89;21636;-85
2022/08/19 08:19:34;;;;;;;13.72;5.85;;;;;;;23.11;70.42;99526.52;1605955;87;21532;-90
2022/08/19 08:22:03;;;;;;;11.12;6.87;;;;;;;23.20;70.39;99531.91;1581983;90;21117;-89
2022/08/19 08:24:30;;;;;;;9.85;5.80;;;;;;;23.27;70.40;99522.55;1574232;89;21045;-91
2022/08/19 08:26:59;;;;;;;9.10;6.92;;;;;;;23.32;70.37;99522.33;1607663;89;21093;-89
2022/08/19 08:29:27;;;;;;;11.78;5.70;;;;;;;23.35;70.44;99521.11;1605710;89;21342;-86
2022/08/19 08:31:55;;;;;;;14.95;5.53;;;;;;;23.36;69.78;99517.77;1577098;89;21148;-86
2022/08/19 08:34:22;;;;;;;14.93;6.87;;;;;;;23.35;69.58;99524.42;1599378;87;21622;-84
2022/08/19 08:36:51;;;;;;;7.87;5.10;;;;;;;23.35;69.93;99516.99;1615664;88;21043;-84
2022/08/19 08:39:20;;;;;;;11.35;5.85;;;;;;;23.39;70.10;99530.27;1614863;88;21547;-83
2022/08/19 08:42:29;;;;;;;9.90;5.55;;;;;;;23.46;70.01;99517.38;1581487;89;21076;-83
2022/08/19 08:45:02;;;;;;;9.88;6.17;;;;;;;23.53;69.46;99534.67;1595851;87;21030;-88
2022/08/19 08:47:35;;;;;;;11.78;5.97;;;;;;;23.63;69.15;99540.54;1567051;87;22064;-75
2022/08/19 08:50:11;;;;;;;12.73;6.25;;;;;;;23.70;68.89;99541.34;1598340;87;21024;-83
2022/08/19 08:52:42;;;;;;;12.07;6.28;;;;;;;23.75;68.31;99530.94;1589181;87;21132;-77
2022/08/19 08:55:16;;;;;;;12.45;6.00;;;;;;;23.79;68.51;99541.47;1588323;89;21056;-78
2022/08/19 08:57:54;;;;;;;10.25;6.33;;;;;;;23.88;68.60;99544.14;1586041;89;21054;-82
2022/08/19 09:00:29;;;;;;;17.73;8.38;;;;;;;23.92;68.35;99541.50;1582527;90;21152;-85
2022/08/19 09:02:57;;;;;;;10.88;6.58;;;;;;;23.96;68.35;99554.20;1559476;90;21052;-86
2022/08/19 09:05:46;;;;;;;14.80;7.62;;;;;;;24.02;68.45;99549.30;1601309;87;21128;-81
2022/08/19 09:08:36;;;;;;;6.25;5.45;;;;;;;24.10;68.20;99550.55;1601006;89;21013;-82
2022/08/19 09:11:08;;;;;;;10.55;5.58;;;;;;;24.20;67.82;99550.13;1594756;89;21040;-83
2022/08/19 09:13:59;;;;;;;10.08;5.83;;;;;;;24.27;67.88;99545.41;1601156;88;21189;-85
2022/08/19 09:16:27;;;;;;;7.55;6.22;;;;;;;24.36;67.59;99557.13;1610919;89;21006;-86
2022/08/19 09:18:58;;;;;;;11.50;5.87;;;;;;;24.46;67.26;99551.13;1573266;90;21119;-84
2022/08/19 09:21:27;;;;;;;9.73;5.80;;;;;;;24.50;66.82;99556.20;1597498;88;21632;-86
2022/08/19 09:23:54;;;;;;;8.10;6.22;;;;;;;24.53;66.76;99551.94;1574811;89;21086;-83
2022/08/19 09:26:22;;;;;;;11.97;7.92;;;;;;;24.56;66.85;99548.48;1576965;89;21143;-85
2022/08/19 09:28:52;;;;;;;10.13;7.08;;;;;;;24.61;66.71;99542.17;1591729;89;21099;-85
2022/08/19 09:31:22;;;;;;;11.05;6.20;;;;;;;24.65;66.75;99542.30;1594541;88;21637;-87
2022/08/19 09:33:49;;;;;;;9.50;5.70;;;;;;;24.71;66.13;99539.52;1594556;88;21065;-83
2022/08/19 09:36:18;;;;;;;19.35;9.45;;;;;;;24.79;66.37;99539.17;1596185;88;21058;-84
2022/08/19 09:38:45;;;;;;;11.25;6.92;;;;;;;24.87;65.81;99546.52;1597175;88;21558;-83
2022/08/19 09:41:19;;;;;;;15.15;6.70;;;;;;;24.90;65.87;99544.43;1598735;89;21526;-82
2022/08/19 09:43:51;;;;;;;9.95;5.92;;;;;;;24.91;66.12;99556.47;1602137;88;21072;-73
2022/08/19 09:46:20;;;;;;;6.10;5.35;;;;;;;24.99;65.99;99551.39;1605132;89;21590;-79
2022/08/19 09:48:52;;;;;;;9.83;6.62;;;;;;;25.05;65.23;99559.64;1607972;87;21062;-82
2022/08/19 09:51:23;;;;;;;16.77;7.50;;;;;;;25.05;65.45;99562.39;1604732;87;21253;-79
2022/08/19 09:53:50;;;;;;;13.60;6.47;;;;;;;25.13;65.33;99566.94;1641698;87;21573;-76
2022/08/19 09:56:18;;;;;;;9.98;5.45;;;;;;;25.22;65.48;99575.65;1626697;87;21872;-80
2022/08/19 09:58:47;;;;;;;15.48;6.53;;;;;;;25.29;64.91;99575.84;1606676;89;21049;-81
2022/08/19 10:01:20;;;;;;;7.33;6.08;;;;;;;25.28;64.81;99578.36;1607586;87;21057;-83
2022/08/19 10:03:51;;;;;;;7.37;5.72;;;;;;;25.19;64.79;99579.31;1611906;87;21876;-84
2022/08/19 10:06:18;;;;;;;8.45;5.60;;;;;;;25.17;64.85;99585.77;1615931;87;20966;-89
2022/08/19 10:08:45;;;;;;;10.98;6.05;;;;;;;25.15;64.89;99572.11;1619570;87;21023;-93
2022/08/19 10:11:14;;;;;;;8.93;6.12;;;;;;;25.10;64.96;99581.98;1608550;89;21093;-89
2022/08/19 10:13:43;;;;;;;6.72;5.53;;;;;;;25.08;64.98;99576.82;1607583;89;21090;-87
2022/08/19 10:16:14;;;;;;;14.53;5.45;;;;;;;25.12;64.73;99584.63;1607452;89;21568;-89
2022/08/19 10:18:46;;;;;;;11.50;6.00;;;;;;;25.16;64.46;99576.47;1619604;87;21178;-86
2022/08/19 10:21:20;;;;;;;7.42;4.92;;;;;;;25.22;64.23;99570.14;1617712;87;20975;-81
2022/08/19 10:23:49;;;;;;;;;;;;;;;25.24;63.22;99574.13;1607897;89;21086;-76
2022/08/19 10:26:26;;;;;;;17.27;6.37;;;;;;;25.26;63.26;99578.73;1607809;89;20210;-75
2022/08/19 10:28:54;;;;;;;11.48;5.62;;;;;;;25.32;63.42;99575.16;1592479;88;21257;-73
2022/08/19 10:31:25;;;;;;;11.80;5.92;;;;;;;25.37;62.15;99568.80;1569986;90;21080;-75
2022/08/19 10:33:57;;;;;;;11.20;4.97;;;;;;;25.42;62.00;99568.55;1590184;90;21085;-79
2022/08/19 10:36:22;;;;;;;6.85;4.83;;;;;;;25.52;62.05;99569.41;1575690;89;20975;-75
2022/08/19 10:38:50;;;;;;;7.30;4.95;;;;;;;25.63;61.52;99569.73;1610409;87;21114;-74
2022/08/19 10:41:22;;;;;;;13.20;5.30;;;;;;;25.73;61.21;99573.94;1584532;89;21146;-74
2022/08/19 10:43:57;;;;;;;9.28;5.25;;;;;;;25.79;60.58;99581.59;1605917;88;21025;-75
2022/08/19 10:46:26;;;;;;;8.30;5.10;;;;;;;25.80;60.13;99581.02;1600764;89;21617;-79
2022/08/19 10:48:55;;;;;;;7.78;5.47;;;;;;;25.84;59.61;99581.91;1599384;89;21530;-82
2022/08/19 10:54:11;;;;;;;17.35;6.60;;;;;;;25.89;58.58;99578.33;1608655;87;21483;-81
2022/08/19 10:56:55;;;;;;;15.88;6.30;;;;;;;25.92;58.36;99580.93;1575102;89;21130;-85
2022/08/19 10:59:27;;;;;;;8.45;4.87;;;;;;;25.96;58.62;99595.59;1600627;89;20963;-89
2022/08/19 11:01:55;;;;;;;6.45;4.65;;;;;;;25.99;58.72;99595.69;1607733;89;21287;-74
2022/08/19 11:04:22;;;;;;;5.95;5.33;;;;;;;26.00;58.97;99597.29;1599310;89;21527;-76
2022/08/19 11:06:50;;;;;;;12.03;5.65;;;;;;;25.94;59.26;99591.84;1588583;90;21833;-83
2022/08/19 11:09:20;;;;;;;9.43;5.15;;;;;;;25.88;58.75;99607.03;1581095;89;21054;-86
2022/08/19 11:11:48;;;;;;;8.68;4.42;;;;;;;25.83;58.62;99609.23;1596413;90;21064;-89
2022/08/19 11:14:19;;;;;;;12.15;6.12;;;;;;;25.78;58.58;99614.44;1594711;90;21055;-86
2022/08/19 11:16:45;;;;;;;11.45;5.97;;;;;;;25.77;59.02;99613.40;1612626;89;21082;-88
2022/08/19 11:19:12;;;;;;;10.10;4.83;;;;;;;25.74;59.18;99607.22;1611863;85;21144;-83
2022/08/19 11:21:43;;;;;;;11.60;5.62;;;;;;;25.69;59.06;99612.42;1622870;87;20964;-84
2022/08/19 11:24:17;;;;;;;9.78;5.55;;;;;;;25.63;59.54;99616.57;1579140;89;20945;-89
2022/08/19 11:26:48;;;;;;;7.25;4.90;;;;;;;25.63;59.85;99614.39;1604863;89;21234;-91
2022/08/19 11:29:15;;;;;;;8.28;5.05;;;;;;;25.65;59.79;99611.52;1604791;89;20983;-78
2022/08/19 11:31:46;;;;;;;8.98;5.17;;;;;;;25.67;59.63;99615.28;1602886;88;21871;-77
2022/08/19 11:34:20;;;;;;;5.25;4.75;;;;;;;25.67;59.89;99616.09;1576933;89;20997;-80
2022/08/19 11:36:50;;;;;;;6.42;4.92;;;;;;;25.69;59.78;99611.04;1601685;89;20984;-77
2022/08/19 11:39:19;;;;;;;12.30;5.85;;;;;;;25.75;58.61;99608.83;1612763;87;21553;-77
2022/08/19 11:41:46;;;;;;;13.00;5.72;;;;;;;25.74;58.51;99605.84;1601293;89;21094;-78
2022/08/19 11:44:15;;;;;;;10.28;5.28;;;;;;;25.71;58.96;99610.09;1602341;89;21529;-77
2022/08/19 11:46:46;;;;;;;6.53;5.40;;;;;;;25.68;59.23;99609.43;1612567;88;21064;-77
2022/08/19 11:49:15;;;;;;;7.92;4.70;;;;;;;25.68;59.27;99614.14;1600886;89;21604;-77
2022/08/19 11:51:42;;;;;;;13.32;4.75;;;;;;;25.69;59.92;99602.77;1580515;90;21218;-76
2022/08/19 11:54:09;;;;;;;14.38;7.10;;;;;;;25.70;60.29;99608.52;1581456;89;21059;-76
2022/08/19 11:56:37;;;;;;;16.82;6.12;;;;;;;25.67;59.75;99606.45;1582722;90;21164;-75